createdAt,value
2018-08-28T00:02:21.321Z,97530.66
2018-08-28T00:04:51.628Z,97533.98
2018-08-28T00:07:21.948Z,97533.22
2018-08-28T00:09:52.461Z,97536.27
2018-08-28T00:12:22.976Z,97536.88
2018-08-28T00:14:53.334Z,97541.50
2018-08-28T00:17:24.167Z,97538.78
2018-08-28T00:19:54.975Z,97539.58
2018-08-28T00:22:25.831Z,97536.83
2018-08-28T00:24:56.142Z,97544.11
2018-08-28T00:27:27.072Z,97540.80
2018-08-28T00:29:57.595Z,97545.18
2018-08-28T00:32:27.951Z,97537.59
2018-08-28T00:34:58.307Z,97538.94
2018-08-28T00:37:28.717Z,97541.94
2018-08-28T00:39:59.101Z,97540.31
2018-08-28T00:42:29.896Z,97538.42
2018-08-28T00:45:00.346Z,97533.83
2018-08-28T00:47:30.914Z,97532.73
2018-08-28T00:50:01.428Z,97536.78
2018-08-28T00:52:32.085Z,97543.58
2018-08-28T00:55:02.504Z,97541.40
2018-08-28T00:57:33.095Z,97542.24
2018-08-28T01:00:03.667Z,97554.20
2018-08-28T01:02:33.979Z,97551.50
2018-08-28T01:05:04.622Z,97546.63
2018-08-28T01:07:35.167Z,97544.98
2018-08-28T01:10:05.935Z,97550.66
2018-08-28T01:12:36.215Z,97548.23
2018-08-28T01:15:07.516Z,97546.88
2018-08-28T01:17:38.008Z,97544.70
2018-08-28T01:20:08.748Z,97545.48
2018-08-28T01:22:39.533Z,97546.05
2018-08-28T01:25:10.028Z,97546.34
2018-08-28T01:27:40.760Z,97541.98
2018-08-28T01:30:14.013Z,97538.73
2018-08-28T01:32:44.445Z,97539.02
2018-08-28T01:35:14.996Z,97539.01
2018-08-28T01:37:45.357Z,97536.81
2018-08-28T01:40:15.872Z,97540.90
2018-08-28T01:48:46.743Z,97528.45
2018-08-28T01:51:17.146Z,97532.53
2018-08-28T01:53:47.771Z,97531.44
2018-08-28T01:56:18.568Z,97533.61
2018-08-28T01:58:48.998Z,97526.27
2018-08-28T02:01:19.716Z,97524.39
2018-08-28T02:03:50.324Z,97523.83
2018-08-28T02:06:20.773Z,97528.42
2018-08-28T02:08:51.345Z,97528.41
2018-08-28T02:11:21.924Z,97525.42
2018-08-28T02:13:52.424Z,97526.22
2018-08-28T02:16:23.013Z,97521.08
2018-08-28T02:18:53.497Z,97524.03
2018-08-28T02:21:24.102Z,97522.95
2018-08-28T02:23:54.741Z,97529.97
2018-08-28T02:26:26.037Z,97525.66
2018-08-28T02:28:56.542Z,97521.59
2018-08-28T02:31:27.889Z,97527.02
2018-08-28T02:33:58.623Z,97512.63
2018-08-28T02:36:29.265Z,97524.05
2018-08-28T02:38:59.864Z,97518.38
2018-08-28T02:41:30.308Z,97510.52
2018-08-28T02:44:00.940Z,97510.24
2018-08-28T02:46:31.578Z,97514.05
2018-08-28T02:49:02.056Z,97508.37
2018-08-28T02:51:33.359Z,97507.27
2018-08-28T02:54:04.474Z,97512.67
2018-08-28T02:56:35.057Z,97514.27
2018-08-28T02:59:05.961Z,97511.30
2018-08-28T03:01:36.555Z,97503.41
2018-08-28T03:04:07.434Z,97508.06
2018-08-28T03:06:38.029Z,97509.95
2018-08-28T03:09:09.164Z,97508.34
2018-08-28T03:11:39.898Z,97510.22
2018-08-28T03:14:10.337Z,97507.25
2018-08-28T03:16:40.805Z,97507.78
2018-08-28T03:19:11.280Z,97504.50
2018-08-28T03:21:42.001Z,97506.95
2018-08-28T03:24:13.782Z,97507.27
2018-08-28T03:26:44.380Z,97508.90
2018-08-28T03:29:15.028Z,97511.61
2018-08-28T03:31:45.527Z,97514.82
2018-08-28T03:34:15.941Z,97515.64
2018-08-28T03:36:46.605Z,97518.63
2018-08-28T03:39:17.407Z,97519.71
2018-08-28T03:41:48.883Z,97526.77
2018-08-28T03:44:19.423Z,97523.47
2018-08-28T03:46:49.996Z,97521.28
2018-08-28T03:49:20.537Z,97522.62
2018-08-28T03:51:51.867Z,97524.84
2018-08-28T03:54:22.823Z,97531.09
2018-08-28T03:56:53.498Z,97525.69
2018-08-28T03:59:24.409Z,97530.33
2018-08-28T04:01:54.957Z,97529.25
2018-08-28T04:04:25.985Z,97537.13
2018-08-28T04:06:56.501Z,97538.51
2018-08-28T04:09:27.964Z,97540.13
2018-08-28T04:11:58.373Z,97542.02
2018-08-28T04:14:29.015Z,97543.95
2018-08-28T04:16:59.553Z,97544.48
2018-08-28T04:19:30.125Z,97544.23
2018-08-28T04:22:00.761Z,97548.81
2018-08-28T04:24:31.433Z,97551.25
2018-08-28T04:27:01.909Z,97555.88
2018-08-28T04:29:32.519Z,97556.67
2018-08-28T04:32:03.103Z,97562.91
2018-08-28T04:34:33.848Z,97562.13
2018-08-28T04:37:04.490Z,97566.74
2018-08-28T04:39:34.961Z,97571.88
2018-08-28T04:42:05.509Z,97563.48
2018-08-28T04:44:36.157Z,97573.50
2018-08-28T04:47:06.737Z,97575.38
2018-08-28T04:49:37.205Z,97573.98
2018-08-28T04:52:07.926Z,97580.75
2018-08-28T04:54:38.464Z,97581.52
2018-08-28T04:57:08.899Z,97573.29
2018-08-28T04:59:39.496Z,97575.62
2018-08-28T05:02:09.909Z,97582.78
2018-08-28T05:04:40.216Z,97582.22
2018-08-28T05:07:10.615Z,97582.09
2018-08-28T05:09:40.971Z,97585.66
2018-08-28T05:12:11.690Z,97583.52
2018-08-28T05:14:42.088Z,97588.78
2018-08-28T05:17:12.493Z,97593.83
2018-08-28T05:19:42.824Z,97591.01
2018-08-28T05:22:13.354Z,97591.56
2018-08-28T05:24:43.809Z,97581.70
2018-08-28T05:27:14.351Z,97601.78
2018-08-28T05:29:45.164Z,97600.05
2018-08-28T05:32:15.533Z,97593.86
2018-08-28T05:34:46.497Z,97599.05
2018-08-28T05:37:17.623Z,97602.13
2018-08-28T05:39:48.706Z,97606.14
2018-08-28T05:42:19.200Z,97609.88
2018-08-28T05:44:51.111Z,97606.66
2018-08-28T05:47:21.633Z,97608.06
2018-08-28T05:49:52.125Z,97603.77
2018-08-28T05:52:22.553Z,97601.13
2018-08-28T05:54:53.206Z,97603.75
2018-08-28T05:57:24.050Z,97606.37
2018-08-28T05:59:55.486Z,97603.34
2018-08-28T06:02:27.079Z,97601.89
2018-08-28T06:04:57.995Z,97601.53
2018-08-28T06:07:28.723Z,97604.09
2018-08-28T06:09:59.249Z,97603.27
2018-08-28T06:12:30.242Z,97607.34
2018-08-28T06:15:01.392Z,97612.34
2018-08-28T06:17:32.264Z,97615.77
2018-08-28T06:20:02.895Z,97613.92
2018-08-28T06:22:33.495Z,97619.11
2018-08-28T06:25:05.142Z,97613.88
2018-08-28T06:27:36.111Z,97620.61
2018-08-28T06:30:10.514Z,97619.81
2018-08-28T06:32:41.283Z,97615.99
2018-08-28T06:35:11.979Z,97624.42
2018-08-28T06:37:42.668Z,97624.83
2018-08-28T06:40:13.325Z,97618.59
2018-08-28T06:42:43.878Z,97627.38
2018-08-28T06:45:21.835Z,97626.12
2018-08-28T06:47:52.533Z,97613.17
2018-08-28T06:50:28.190Z,97627.15
2018-08-28T06:53:03.569Z,97621.03
2018-08-28T06:55:34.192Z,97623.37
2018-08-28T06:58:04.724Z,97626.86
2018-08-28T07:00:35.587Z,97625.35
2018-08-28T07:03:06.518Z,97614.61
2018-08-28T07:05:37.145Z,97621.58
2018-08-28T07:08:07.860Z,97618.40
2018-08-28T07:10:38.631Z,97616.92
2018-08-28T07:13:09.258Z,97609.69
2018-08-28T07:15:40.001Z,97615.34
2018-08-28T07:18:11.222Z,97611.90
2018-08-28T07:20:51.163Z,97608.08
2018-08-28T07:23:25.960Z,97615.23
2018-08-28T07:25:56.603Z,97603.87
2018-08-28T07:28:27.593Z,97613.82
2018-08-28T07:31:01.741Z,97610.11
2018-08-28T07:33:32.422Z,97603.58
2018-08-28T07:36:03.173Z,97609.36
2018-08-28T07:38:33.771Z,97606.55
2018-08-28T07:41:04.491Z,97611.05
2018-08-28T07:43:35.004Z,97605.27
2018-08-28T07:46:05.847Z,97612.94
2018-08-28T07:48:36.813Z,97605.03
2018-08-28T07:51:07.410Z,97608.22
2018-08-28T07:53:38.051Z,97605.20
2018-08-28T07:56:08.811Z,97601.77
2018-08-28T07:58:39.403Z,97599.87
2018-08-28T08:01:09.867Z,97595.88
2018-08-28T08:03:41.003Z,97606.67
2018-08-28T08:06:11.454Z,97606.11
2018-08-28T08:08:42.011Z,97603.02
2018-08-28T08:11:13.017Z,97616.22
2018-08-28T08:13:43.608Z,97618.52
2018-08-28T08:16:14.231Z,97623.45
2018-08-28T08:18:44.673Z,97624.72
2018-08-28T08:21:15.310Z,97616.07
2018-08-28T08:23:46.126Z,97614.83
2018-08-28T08:26:16.805Z,97616.01
2018-08-28T08:28:47.310Z,97612.03
2018-08-28T08:31:18.084Z,97609.15
2018-08-28T08:33:48.629Z,97616.52
2018-08-28T08:36:19.038Z,97608.36
2018-08-28T08:39:06.964Z,97614.38
2018-08-28T08:41:37.702Z,97613.71
2018-08-28T08:44:08.510Z,97612.07
2018-08-28T08:46:39.171Z,97606.28
2018-08-28T08:49:09.800Z,97601.77
2018-08-28T08:51:40.502Z,97605.16
2018-08-28T08:54:21.983Z,97610.32
2018-08-28T08:56:52.569Z,97609.46
2018-08-28T08:59:23.579Z,97610.84
2018-08-28T09:01:54.090Z,97607.84
2018-08-28T09:04:25.123Z,97599.05
2018-08-28T09:06:55.536Z,97604.47
2018-08-28T09:09:26.694Z,97604.43
2018-08-28T09:11:57.427Z,97594.53
2018-08-28T09:14:28.306Z,97602.93
2018-08-28T09:16:58.863Z,97596.26
2018-08-28T09:19:29.357Z,97595.57
2018-08-28T09:21:59.949Z,97594.86
2018-08-28T09:24:30.422Z,97589.80
2018-08-28T09:27:01.050Z,97586.13
2018-08-28T09:29:31.508Z,97590.27
2018-08-28T09:32:02.079Z,97589.88
2018-08-28T09:34:38.010Z,97589.80
2018-08-28T09:37:09.381Z,97583.77
2018-08-28T09:39:42.175Z,97577.23
2018-08-28T09:42:14.380Z,97577.95
2018-08-28T09:44:45.034Z,97579.30
2018-08-28T09:47:16.218Z,97577.55
2018-08-28T09:49:46.848Z,97580.21
2018-08-28T09:52:17.308Z,97581.94
2018-08-28T09:54:47.804Z,97579.23
2018-08-28T09:57:18.549Z,97577.66
2018-08-28T09:59:48.982Z,97577.48
2018-08-28T10:02:19.498Z,97585.12
2018-08-28T10:04:49.929Z,97577.80
2018-08-28T10:07:20.197Z,97584.58
2018-08-28T10:09:50.566Z,97583.90
2018-08-28T10:12:21.126Z,97583.56
2018-08-28T10:14:51.668Z,97587.27
2018-08-28T10:17:22.065Z,97584.84
2018-08-28T10:19:52.559Z,97587.79
2018-08-28T10:40:24.524Z,97590.53
2018-08-28T10:42:54.869Z,97590.84
2018-08-28T10:45:25.610Z,97595.13
2018-08-28T10:47:56.059Z,97591.31
2018-08-28T10:50:27.018Z,97592.98
2018-08-28T10:52:57.538Z,97586.86
2018-08-28T10:55:28.420Z,97594.00
2018-08-28T10:57:59.201Z,97591.63
2018-08-28T11:00:29.493Z,97593.60
2018-08-28T11:02:59.913Z,97589.20
2018-08-28T11:05:30.193Z,97587.96
2018-08-28T11:08:00.964Z,97588.35
2018-08-28T11:10:31.468Z,97588.21
2018-08-28T11:13:06.682Z,97589.39
2018-08-28T11:15:37.119Z,97591.92
2018-08-28T11:18:07.759Z,97592.24
2018-08-28T11:20:38.075Z,97584.23
2018-08-28T11:23:13.383Z,97589.78
2018-08-28T11:25:44.199Z,97582.95
2018-08-28T11:28:14.660Z,97591.05
2018-08-28T11:30:45.061Z,97581.78
2018-08-28T11:33:19.982Z,97581.56
2018-08-28T11:36:02.222Z,97578.73
2018-08-28T11:38:33.148Z,97589.08
2018-08-28T11:41:03.394Z,97587.05
2018-08-28T11:43:33.964Z,97572.65
2018-08-28T11:46:04.567Z,97589.05
2018-08-28T11:48:35.362Z,97578.63
2018-08-28T11:51:05.871Z,97574.12
2018-08-28T11:53:36.783Z,97572.40
2018-08-28T11:56:07.219Z,97569.73
2018-08-28T11:58:37.755Z,97566.77
2018-08-28T12:01:08.289Z,97572.38
2018-08-28T12:03:38.912Z,97572.31
2018-08-28T12:06:12.174Z,97573.20
2018-08-28T12:08:47.764Z,97565.33
2018-08-28T12:11:18.362Z,97555.92
2018-08-28T12:13:48.942Z,97559.64
2018-08-28T12:16:19.234Z,97559.23
2018-08-28T12:18:50.232Z,97564.10
2018-08-28T12:21:20.874Z,97562.98
2018-08-28T12:23:51.510Z,97562.24
2018-08-28T12:39:28.451Z,97550.19
2018-08-28T12:41:59.590Z,97546.53
2018-08-28T12:44:29.854Z,97546.14
2018-08-28T12:47:00.298Z,97536.53
2018-08-28T13:07:31.212Z,97539.75
2018-08-28T13:10:01.743Z,97534.94
2018-08-28T13:12:32.053Z,97530.69
2018-08-28T13:15:05.421Z,97530.56
2018-08-28T13:17:35.722Z,97523.09
2018-08-28T13:20:06.449Z,97516.03
2018-08-28T13:22:36.850Z,97509.18
2018-08-28T13:25:09.341Z,97512.64
2018-08-28T13:27:54.705Z,97518.73
2018-08-28T13:30:30.545Z,97519.59
2018-08-28T13:33:02.063Z,97519.34
2018-08-28T13:35:32.438Z,97507.59
2018-08-28T13:38:05.431Z,97510.69
2018-08-28T13:40:35.959Z,97512.70
2018-08-28T13:43:06.527Z,97507.50
2018-08-28T13:45:36.834Z,97503.89
2018-08-28T13:48:10.305Z,97513.84
2018-08-28T13:54:06.204Z,97503.62
2018-08-28T13:57:00.984Z,97504.64
2018-08-28T14:03:01.093Z,97500.20
2018-08-28T14:05:31.441Z,97504.83
2018-08-28T14:08:01.887Z,97496.70
2018-08-28T14:10:33.518Z,97495.19
2018-08-28T14:13:04.102Z,97503.23
2018-08-28T14:15:35.116Z,97496.41
2018-08-28T14:18:05.503Z,97494.39
2018-08-28T14:20:37.146Z,97488.45
2018-08-28T14:23:07.875Z,97498.95
2018-08-28T14:25:46.043Z,97494.09
2018-08-28T14:28:24.223Z,97494.55
2018-08-28T14:31:02.192Z,97496.78
2018-08-28T14:33:41.860Z,97482.58
2018-08-28T14:36:23.258Z,97489.77
2018-08-28T14:39:01.725Z,97488.52
2018-08-28T14:41:38.979Z,97487.09
2018-08-28T14:44:20.242Z,97489.44
2018-08-28T14:47:00.061Z,97486.40
2018-08-28T14:49:43.110Z,97479.84
2018-08-28T14:52:19.807Z,97481.19
2018-08-28T14:54:59.957Z,97477.97
2018-08-28T14:57:38.286Z,97482.81
2018-08-28T15:08:54.085Z,97474.75
2018-08-28T15:15:10.044Z,97473.62
2018-08-28T15:17:47.315Z,97470.83
2018-08-28T15:20:28.515Z,97475.28
2018-08-28T15:23:04.029Z,97474.73
2018-08-28T15:25:39.436Z,97470.08
2018-08-28T15:57:18.401Z,97452.16
2018-08-28T15:59:48.745Z,97458.97
2018-08-28T16:26:59.769Z,97440.42
2018-08-28T16:29:36.511Z,97450.55
2018-08-28T16:32:13.858Z,97442.97
2018-08-28T16:34:53.602Z,97445.52
2018-08-28T16:37:30.289Z,97441.16
2018-08-28T16:40:07.920Z,97439.53
2018-08-28T16:42:48.784Z,97441.38
2018-08-28T16:45:27.199Z,97449.66
2018-08-28T16:48:02.906Z,97444.62
2018-08-28T16:50:38.442Z,97441.53
2018-08-28T16:53:08.833Z,97447.19
2018-08-28T16:55:39.563Z,97443.70
2018-08-28T16:58:10.033Z,97450.61
2018-08-28T17:00:40.496Z,97446.35
2018-08-28T17:03:10.983Z,97452.67
2018-08-28T17:05:41.450Z,97448.53
2018-08-28T17:08:19.038Z,97457.05
2018-08-28T17:10:59.991Z,97456.47
2018-08-28T17:13:37.010Z,97459.10
2018-08-28T17:16:14.483Z,97461.64
2018-08-28T17:18:58.499Z,97472.34
2018-08-28T17:21:44.284Z,97464.84
2018-08-28T17:24:27.762Z,97456.96
2018-08-28T17:27:05.326Z,97463.48
2018-08-28T17:33:10.808Z,97457.13
2018-08-28T17:35:45.188Z,97468.40
2018-08-28T17:38:17.262Z,97465.13
2018-08-28T17:40:52.801Z,97469.14
2018-08-28T17:43:23.141Z,97465.34
2018-08-28T17:45:53.867Z,97463.70
2018-08-28T17:48:24.241Z,97466.41
2018-08-28T18:00:09.131Z,97469.38
2018-08-28T18:02:39.520Z,97467.09
2018-08-28T18:05:10.050Z,97472.13
2018-08-28T18:13:34.319Z,97483.01
2018-08-28T18:16:04.807Z,97482.65
2018-08-28T18:18:35.261Z,97484.80
2018-08-28T18:21:05.671Z,97490.75
2018-08-28T18:23:38.985Z,97491.80
2018-08-28T18:26:09.273Z,97489.70
2018-08-28T18:28:40.177Z,97497.52
2018-08-28T18:31:11.012Z,97497.50
2018-08-28T18:33:41.418Z,97493.61
2018-08-28T18:36:12.159Z,97505.94
2018-08-28T18:38:43.046Z,97505.77
2018-08-28T18:41:14.133Z,97502.05
2018-08-28T18:43:44.848Z,97508.85
2018-08-28T18:46:15.596Z,97510.95
2018-08-28T18:48:46.394Z,97511.02
2018-08-28T18:51:16.797Z,97514.51
2018-08-28T18:53:48.750Z,97512.95
2018-08-28T18:56:19.057Z,97520.63
2018-08-28T18:58:49.615Z,97522.91
2018-08-28T19:01:19.923Z,97527.80
2018-08-28T19:07:21.566Z,97529.58
2018-08-28T19:09:51.889Z,97532.33
2018-08-28T20:12:13.226Z,97558.34
2018-08-28T20:30:33.155Z,97560.82
2018-08-28T20:42:12.230Z,97555.87
2018-08-28T20:48:03.167Z,97556.56
2018-08-28T20:50:40.645Z,97565.02
2018-08-28T20:56:26.312Z,97564.73
2018-08-28T20:58:57.359Z,97563.31
2018-08-28T21:01:29.639Z,97565.53
2018-08-28T21:07:10.538Z,97561.27
2018-08-28T21:09:40.750Z,97561.88
2018-08-28T21:12:11.277Z,97564.77
2018-08-28T21:14:41.529Z,97560.34
2018-08-28T21:17:12.527Z,97562.81
2018-08-28T21:19:43.016Z,97560.34
2018-08-28T21:22:43.071Z,97560.28
2018-08-28T21:25:17.314Z,97560.38
2018-08-28T21:27:47.663Z,97561.41
2018-08-28T21:30:21.936Z,97556.24
2018-08-28T21:32:52.544Z,97555.42
2018-08-28T21:35:23.658Z,97569.30
2018-08-28T21:37:58.938Z,97563.67
2018-08-28T21:41:06.986Z,97558.81
2018-08-28T21:43:48.028Z,97562.70
2018-08-28T21:46:19.208Z,97560.23
2018-08-28T21:48:50.724Z,97562.70
2018-08-28T21:51:21.113Z,97561.58
2018-08-28T21:53:53.368Z,97566.47
2018-08-28T21:56:23.821Z,97566.02
2018-08-28T21:58:54.461Z,97572.93
2018-08-28T22:01:25.664Z,97571.29
2018-08-28T22:03:56.088Z,97570.40
2018-08-28T22:06:31.494Z,97570.60
2018-08-28T22:09:03.302Z,97568.41
2018-08-28T22:11:33.958Z,97562.09
2018-08-28T22:14:05.331Z,97570.30
2018-08-28T22:16:43.895Z,97564.63
2018-08-28T22:19:14.308Z,97558.98
2018-08-28T22:21:44.781Z,97557.53
2018-08-28T22:24:15.307Z,97555.64
2018-08-28T22:26:46.863Z,97560.14
2018-08-28T22:29:18.656Z,97564.94
2018-08-28T22:32:12.522Z,97563.00
2018-08-28T22:35:06.122Z,97565.97
2018-08-28T22:38:09.892Z,97566.59
2018-08-28T22:44:03.363Z,97561.87
2018-08-28T22:46:33.792Z,97561.48
2018-08-28T22:49:04.249Z,97558.50
2018-08-28T22:51:35.529Z,97561.88
2018-08-28T22:54:05.982Z,97562.44
2018-08-28T22:59:35.493Z,97563.88
2018-08-28T23:02:05.861Z,97568.73
2018-08-28T23:04:36.242Z,97563.81
2018-08-28T23:07:07.234Z,97566.30
2018-08-28T23:09:37.575Z,97565.84
2018-08-28T23:12:08.983Z,97558.11
2018-08-28T23:14:42.248Z,97559.72
2018-08-28T23:17:12.725Z,97562.11
2018-08-28T23:19:44.230Z,97562.95
2018-08-28T23:22:14.474Z,97562.40
2018-08-28T23:24:44.727Z,97558.03
2018-08-28T23:27:15.148Z,97561.48
2018-08-28T23:29:45.419Z,97554.08
2018-08-28T23:32:15.816Z,97552.86
2018-08-28T23:34:46.478Z,97548.19
2018-08-28T23:37:16.806Z,97546.44
2018-08-28T23:39:47.133Z,97550.94
2018-08-28T23:42:17.801Z,97544.94
2018-08-28T23:44:48.112Z,97542.34
2018-08-28T23:47:18.582Z,97543.44
2018-08-28T23:49:49.072Z,97538.63
2018-08-28T23:52:19.495Z,97541.52
2018-08-28T23:54:50.545Z,97547.66
2018-08-28T23:57:20.870Z,97538.66
2018-08-28T23:59:54.158Z,97544.56
